Time;durP1;ratioP1;P1;durP2;ratioP2;P2;SDS_P1;SDS_P2;PMS_P1;PMS_P2;Temp;Humidity;BMP_temperature;BMP_pressure;BME280_temperature;BME280_humidity;BME280_pressure;Samples;Min_cycle;Max_cycle;Signal;HPM_P1;HPM_P2
2023/05/08 00:01:22;;;;;;;25.50;23.30;;;;;;;14.20;100.00;101930.72;5028294;28;20402;-78
2023/05/08 00:03:50;;;;;;;23.98;21.58;;;;;;;14.20;100.00;101928.91;5027439;28;20486;-78
2023/05/08 00:06:16;;;;;;;26.35;24.25;;;;;;;14.20;100.00;101936.00;5010475;28;20029;-78
2023/05/08 00:08:42;;;;;;;25.77;23.38;;;;;;;14.21;100.00;101938.53;5044615;28;20040;-78
2023/05/08 00:11:08;;;;;;;27.10;24.73;;;;;;;14.19;100.00;101939.63;5048978;28;20029;-78
2023/05/08 00:13:34;;;;;;;26.35;24.17;;;;;;;14.16;100.00;101931.91;5013305;28;20442;-78
2023/05/08 00:16:10;;;;;;;28.50;26.08;;;;;;;14.16;100.00;101937.19;5010435;28;20061;-78
2023/05/08 00:18:37;;;;;;;28.33;25.88;;;;;;;14.18;100.00;101930.81;5024174;28;20079;-78
2023/05/08 00:21:02;;;;;;;28.02;25.63;;;;;;;14.18;100.00;101932.63;5026284;28;20064;-78
2023/05/08 00:23:31;;;;;;;28.08;25.50;;;;;;;14.17;100.00;101931.78;5027663;28;20053;-78
2023/05/08 00:25:57;;;;;;;28.42;25.98;;;;;;;14.15;100.00;101928.41;5037137;28;20382;-78
2023/05/08 00:28:22;;;;;;;27.33;24.92;;;;;;;14.16;100.00;101927.44;5030030;28;20043;-79
2023/05/08 00:30:48;;;;;;;26.65;24.23;;;;;;;14.16;100.00;101931.91;5037418;28;20237;-79
2023/05/08 00:33:13;;;;;;;27.80;25.42;;;;;;;14.16;100.00;101927.44;5026128;28;20032;-79
2023/05/08 00:35:41;;;;;;;29.88;26.77;;;;;;;14.14;100.00;101937.31;5027036;28;20048;-80
2023/05/08 00:38:08;;;;;;;28.90;26.20;;;;;;;14.15;100.00;101928.41;5026958;28;20021;-79
2023/05/08 00:40:33;;;;;;;30.02;27.58;;;;;;;14.14;100.00;101932.00;5027668;28;20460;-77
2023/05/08 00:43:05;;;;;;;29.35;26.73;;;;;;;14.15;100.00;101933.69;5028551;28;20045;-79
2023/05/08 00:45:35;;;;;;;28.35;25.67;;;;;;;14.13;100.00;101930.31;5028294;28;20105;-79
2023/05/08 00:48:01;;;;;;;27.77;25.27;;;;;;;14.10;100.00;101927.88;5015209;28;20117;-79
2023/05/08 00:50:27;;;;;;;26.52;24.35;;;;;;;14.10;100.00;101926.09;5014728;28;20109;-79
2023/05/08 00:52:54;;;;;;;27.25;24.90;;;;;;;14.10;100.00;101925.25;5031805;28;20560;-79
2023/05/08 00:55:20;;;;;;;28.65;25.60;;;;;;;14.07;100.00;101918.38;5031188;28;20025;-79
2023/05/08 00:57:47;;;;;;;29.45;26.45;;;;;;;14.06;100.00;101923.78;5030924;28;20045;-79
2023/05/08 01:00:16;;;;;;;29.38;26.85;;;;;;;14.06;100.00;101918.47;5030795;28;20478;-79
2023/05/08 01:02:42;;;;;;;30.05;27.38;;;;;;;14.10;100.00;101919.94;5031153;28;20036;-78
2023/05/08 01:05:08;;;;;;;28.60;26.02;;;;;;;14.09;100.00;101918.25;5028127;28;20034;-79
2023/05/08 01:07:34;;;;;;;28.15;25.45;;;;;;;14.07;100.00;101914.88;5036421;28;20044;-79
2023/05/08 01:10:00;;;;;;;29.70;26.60;;;;;;;14.05;100.00;101915.00;5052659;28;20470;-79
2023/05/08 01:12:47;;;;;;;29.20;26.33;;;;;;;14.09;100.00;101924.41;5045066;28;20036;-79
2023/05/08 01:15:22;;;;;;;31.88;26.40;;;;;;;14.05;100.00;101922.09;5028433;28;20087;-79
2023/05/08 01:17:54;;;;;;;28.27;25.60;;;;;;;14.06;100.00;101935.19;5033369;28;20033;-78
2023/05/08 01:20:38;;;;;;;27.80;25.25;;;;;;;14.08;100.00;101921.84;5029354;28;20017;-79
2023/05/08 01:23:28;;;;;;;27.58;25.05;;;;;;;14.09;100.00;101915.59;5030374;28;20033;-79
2023/05/08 01:26:03;;;;;;;27.70;25.13;;;;;;;14.05;100.00;101917.63;5035171;28;20029;-79
2023/05/08 01:28:47;;;;;;;26.85;24.40;;;;;;;14.06;100.00;101913.19;5021519;28;20035;-79
2023/05/08 01:31:18;;;;;;;30.50;27.70;;;;;;;14.04;100.00;101915.09;5026994;28;20104;-79
2023/05/08 01:33:50;;;;;;;26.83;24.35;;;;;;;14.03;100.00;101916.06;5031141;28;20033;-79
2023/05/08 01:36:22;;;;;;;27.48;24.70;;;;;;;14.01;100.00;101918.81;5022582;28;20048;-78
2023/05/08 01:39:22;;;;;;;26.23;23.90;;;;;;;14.05;100.00;101922.09;5032184;28;20037;-78
2023/05/08 01:42:01;;;;;;;27.13;23.80;;;;;;;14.00;100.00;101924.19;5029819;28;20045;-78
2023/05/08 01:44:33;;;;;;;26.35;23.73;;;;;;;13.98;100.00;101919.00;5031218;28;20057;-78
2023/05/08 01:47:06;;;;;;;27.55;25.02;;;;;;;13.98;100.00;101926.94;5031747;28;20025;-79
2023/05/08 01:49:45;;;;;;;26.55;24.17;;;;;;;13.99;100.00;101922.50;5030714;28;20028;-79
2023/05/08 01:52:42;;;;;;;26.52;24.17;;;;;;;14.00;100.00;101918.88;5026521;28;20017;-79
2023/05/08 01:55:11;;;;;;;27.05;24.42;;;;;;;13.94;100.00;101922.81;5010637;28;20030;-78
2023/05/08 01:57:42;;;;;;;27.63;25.08;;;;;;;13.93;100.00;101918.47;5020912;28;20511;-78
2023/05/08 02:00:08;;;;;;;30.07;27.47;;;;;;;13.95;100.00;101910.44;5027413;28;20052;-78
2023/05/08 02:02:35;;;;;;;31.05;28.27;;;;;;;13.95;100.00;101915.72;5028646;28;20781;-78
2023/05/08 02:05:04;;;;;;;28.15;25.38;;;;;;;13.93;100.00;101926.41;5031189;28;20038;-79
2023/05/08 02:07:34;;;;;;;28.73;25.80;;;;;;;13.92;100.00;101924.72;5036650;28;20032;-79
2023/05/08 02:10:03;;;;;;;28.80;26.10;;;;;;;13.94;100.00;101925.47;5036423;28;20030;-78
2023/05/08 02:12:31;;;;;;;29.58;26.73;;;;;;;13.93;100.00;101933.50;5018809;28;20390;-78
2023/05/08 02:14:58;;;;;;;29.65;26.67;;;;;;;13.90;100.00;101934.56;5031153;28;20024;-78
2023/05/08 02:17:24;;;;;;;27.65;24.98;;;;;;;13.92;100.00;101935.31;5031687;28;20017;-79
2023/05/08 02:19:51;;;;;;;27.27;24.83;;;;;;;13.90;100.00;101933.72;5030083;28;20029;-79
2023/05/08 02:22:18;;;;;;;28.15;25.38;;;;;;;13.90;100.00;101928.44;5028792;28;20021;-79
2023/05/08 02:24:44;;;;;;;28.30;25.70;;;;;;;13.88;100.00;101930.34;5026114;28;20041;-79
2023/05/08 02:27:11;;;;;;;30.33;27.50;;;;;;;13.88;100.00;101935.63;5045703;28;20032;-78
2023/05/08 02:29:38;;;;;;;29.58;27.00;;;;;;;13.91;100.00;101940.72;5030333;28;20036;-79
2023/05/08 02:32:05;;;;;;;31.65;28.85;;;;;;;13.92;100.00;101932.66;5030088;28;20028;-79
2023/05/08 02:34:34;;;;;;;31.75;28.95;;;;;;;13.92;100.00;101942.41;5029273;28;20029;-79
2023/05/08 02:37:05;;;;;;;29.25;26.20;;;;;;;13.91;100.00;101946.00;5030694;28;20029;-79
2023/05/08 02:39:32;;;;;;;28.15;25.30;;;;;;;13.85;100.00;101941.16;5026756;28;20021;-79
2023/05/08 02:41:59;;;;;;;27.45;24.77;;;;;;;13.86;100.00;101940.19;5031681;28;20548;-78
2023/05/08 02:44:24;;;;;;;28.40;25.48;;;;;;;13.87;100.00;101944.53;5023584;28;20018;-78
2023/05/08 02:47:18;;;;;;;30.13;27.33;;;;;;;13.86;100.00;101942.84;5014729;28;20048;-79
2023/05/08 02:50:03;;;;;;;29.02;26.48;;;;;;;13.84;100.00;101947.41;5030016;28;20112;-79
2023/05/08 02:52:34;;;;;;;29.05;26.50;;;;;;;13.83;100.00;101932.47;5031323;28;20028;-79
2023/05/08 02:55:22;;;;;;;28.50;25.38;;;;;;;13.81;100.00;101929.94;5028695;28;20021;-78
2023/05/08 02:58:24;;;;;;;27.63;25.13;;;;;;;13.85;100.00;101931.41;5029631;28;20025;-78
2023/05/08 03:00:57;;;;;;;28.27;25.67;;;;;;;13.80;100.00;101934.38;5026702;28;20748;-78
2023/05/08 03:03:27;;;;;;;27.27;24.88;;;;;;;13.80;100.00;101933.53;5023731;28;20025;-78
2023/05/08 03:06:01;;;;;;;27.45;24.88;;;;;;;13.78;100.00;101931.00;5029756;28;20021;-79
2023/05/08 03:08:33;;;;;;;29.33;26.23;;;;;;;13.79;100.00;101935.34;5042110;28;20079;-79
2023/05/08 03:11:04;;;;;;;28.60;25.92;;;;;;;13.78;100.00;101931.00;5030643;28;20029;-79
2023/05/08 03:13:33;;;;;;;29.17;26.52;;;;;;;13.77;100.00;101929.31;5030887;28;20026;-79
2023/05/08 03:16:03;;;;;;;28.27;25.70;;;;;;;13.76;100.00;101932.06;5029442;28;20096;-79
2023/05/08 03:18:41;;;;;;;30.40;26.98;;;;;;;13.76;100.00;101932.06;5023886;28;20569;-79
2023/05/08 03:21:09;;;;;;;31.00;28.10;;;;;;;13.76;100.00;101932.06;5027396;28;20025;-79
2023/05/08 03:23:35;;;;;;;29.02;26.33;;;;;;;13.73;100.00;101933.13;5030087;28;20112;-79
2023/05/08 03:26:06;;;;;;;27.98;25.35;;;;;;;13.73;100.00;101934.94;5033173;28;20386;-79
2023/05/08 03:28:35;;;;;;;28.65;25.98;;;;;;;13.69;100.00;101933.44;5030907;28;20025;-79
2023/05/08 03:31:05;;;;;;;27.90;25.30;;;;;;;13.69;100.00;101926.38;5030388;28;20036;-79
2023/05/08 03:33:31;;;;;;;26.88;24.48;;;;;;;13.66;100.00;101926.56;5026418;28;20036;-78
2023/05/08 03:35:58;;;;;;;26.08;23.77;;;;;;;13.64;100.00;101928.47;5029037;28;20029;-79
2023/05/08 03:38:26;;;;;;;27.75;25.35;;;;;;;13.62;100.00;101929.53;5027827;28;20033;-79
2023/05/08 03:40:52;;;;;;;29.33;26.73;;;;;;;13.59;100.00;101925.28;5028913;28;20393;-78
2023/05/08 03:43:19;;;;;;;30.23;27.05;;;;;;;13.61;100.00;101931.34;5023826;28;20083;-79
2023/05/08 03:45:46;;;;;;;29.77;27.05;;;;;;;13.58;100.00;101925.41;5010293;28;20486;-79
2023/05/08 03:48:13;;;;;;;28.13;25.42;;;;;;;13.54;100.00;101922.13;5022387;28;20034;-79
2023/05/08 03:50:38;;;;;;;26.00;23.58;;;;;;;13.51;100.00;101924.97;5026190;28;20041;-79
2023/05/08 03:53:04;;;;;;;26.40;23.65;;;;;;;13.49;100.00;101918.94;5026414;28;20029;-79
2023/05/08 03:55:30;;;;;;;25.67;23.38;;;;;;;13.50;100.00;101928.56;5029050;28;20436;-78
2023/05/08 03:58:19;;;;;;;27.33;24.95;;;;;;;13.47;100.00;101923.50;5025410;28;20029;-78
2023/05/08 04:01:05;;;;;;;26.25;23.83;;;;;;;13.44;100.00;101923.72;5022522;28;20052;-78
2023/05/08 04:03:55;;;;;;;30.15;27.55;;;;;;;13.51;100.00;101930.25;5028511;28;20124;-79
2023/05/08 04:06:45;;;;;;;29.10;26.27;;;;;;;13.45;100.00;101926.25;5028405;28;20046;-78
2023/05/08 04:09:40;;;;;;;28.17;25.42;;;;;;;13.52;100.00;101929.31;5025963;28;20099;-78
2023/05/08 04:12:15;;;;;;;28.20;25.83;;;;;;;13.47;100.00;101936.72;5010647;28;20037;-78
2023/05/08 04:14:49;;;;;;;28.50;25.90;;;;;;;13.44;100.00;101934.28;5030181;28;20045;-78
2023/05/08 04:17:21;;;;;;;29.20;26.33;;;;;;;13.43;100.00;101933.44;5023180;28;20569;-78
2023/05/08 04:19:54;;;;;;;28.67;25.77;;;;;;;13.45;100.00;101941.28;5027557;28;20060;-79
2023/05/08 04:22:24;;;;;;;28.40;25.70;;;;;;;13.44;100.00;101948.34;5024784;28;20030;-78
2023/05/08 04:24:53;;;;;;;29.10;26.40;;;;;;;13.46;100.00;101940.31;5032333;28;20029;-78
2023/05/08 04:27:18;;;;;;;26.77;24.38;;;;;;;13.46;100.00;101940.31;5051709;28;20067;-78
2023/05/08 04:29:44;;;;;;;27.15;24.52;;;;;;;13.45;100.00;101939.47;5052841;28;20047;-78
2023/05/08 04:32:10;;;;;;;26.73;24.45;;;;;;;13.46;100.00;101937.66;5052931;28;20520;-78
2023/05/08 04:34:35;;;;;;;25.45;23.17;;;;;;;13.48;100.00;101943.69;5034376;28;20021;-78
2023/05/08 04:37:01;;;;;;;26.58;23.73;;;;;;;13.53;100.00;101938.09;5029540;28;20375;-78
2023/05/08 04:39:26;;;;;;;25.73;23.38;;;;;;;13.52;100.00;101939.88;5033493;28;20124;-78
2023/05/08 04:41:54;;;;;;;25.80;23.65;;;;;;;13.53;100.00;101946.88;5031623;28;20052;-78
2023/05/08 04:44:19;;;;;;;26.90;24.60;;;;;;;13.58;100.00;101944.75;5031384;28;20570;-78
2023/05/08 04:46:44;;;;;;;27.77;25.42;;;;;;;13.60;100.00;101948.13;5032759;28;20065;-78
2023/05/08 04:49:15;;;;;;;28.13;25.63;;;;;;;13.61;100.00;101962.19;5033347;28;20061;-77
2023/05/08 04:51:40;;;;;;;26.35;23.95;;;;;;;13.62;100.00;101954.19;5031089;28;20064;-78
2023/05/08 04:54:23;;;;;;;28.25;25.75;;;;;;;13.63;100.00;101953.25;5031332;28;20061;-79
2023/05/08 04:56:48;;;;;;;28.23;25.52;;;;;;;13.66;100.00;101962.75;5032692;28;20033;-79
2023/05/08 04:59:15;;;;;;;26.88;24.45;;;;;;;13.68;100.00;101961.69;5030941;28;20076;-78
2023/05/08 05:01:40;;;;;;;27.55;24.98;;;;;;;13.72;100.00;101967.63;5029468;28;20032;-78
2023/05/08 05:04:07;;;;;;;32.35;29.42;;;;;;;13.80;100.00;101976.72;5028651;28;20022;-78
2023/05/08 05:06:33;;;;;;;31.17;28.38;;;;;;;13.80;100.00;101968.78;5031084;28;20040;-78
2023/05/08 05:08:58;;;;;;;31.77;28.95;;;;;;;13.84;100.00;101976.50;5019708;28;20026;-78
2023/05/08 05:11:23;;;;;;;32.67;29.50;;;;;;;13.84;100.00;101973.84;5027618;28;20061;-78
2023/05/08 05:13:50;;;;;;;32.67;29.55;;;;;;;13.88;100.00;101967.38;5029696;28;20030;-78
2023/05/08 05:16:16;;;;;;;33.75;30.20;;;;;;;13.92;100.00;101979.44;5029252;28;20096;-78
2023/05/08 05:18:41;;;;;;;33.28;30.02;;;;;;;13.91;100.00;101983.91;5028923;28;20033;-78
2023/05/08 05:21:10;;;;;;;33.75;30.52;;;;;;;13.93;100.00;101991.72;5024323;28;20037;-78
2023/05/08 05:23:37;;;;;;;32.25;29.35;;;;;;;13.97;100.00;101986.09;5029413;28;20026;-78
2023/05/08 05:26:05;;;;;;;34.47;31.27;;;;;;;14.02;100.00;101996.41;5036393;28;20497;-78
2023/05/08 05:28:30;;;;;;;34.88;31.48;;;;;;;14.01;100.00;101987.63;5030520;28;20087;-78
2023/05/08 05:30:55;;;;;;;35.97;32.47;;;;;;;14.02;100.00;101985.81;5032568;28;20033;-78
2023/05/08 05:33:21;;;;;;;35.67;32.20;;;;;;;14.04;100.00;101989.19;5031808;28;20378;-79
2023/05/08 05:35:46;;;;;;;35.45;32.15;;;;;;;14.08;100.00;101994.16;5027872;28;20060;-79
2023/05/08 05:38:12;;;;;;;38.67;34.85;;;;;;;14.10;100.00;101992.25;5011927;28;20117;-78
2023/05/08 05:40:37;;;;;;;36.88;33.45;;;;;;;14.12;100.00;101997.44;5012569;28;20061;-78
2023/05/08 05:43:03;;;;;;;37.95;34.25;;;;;;;14.18;100.00;101997.00;5009946;28;20100;-78
2023/05/08 05:45:28;;;;;;;35.72;32.33;;;;;;;14.23;100.00;102000.16;5024901;28;20030;-78
2023/05/08 05:47:53;;;;;;;37.30;33.15;;;;;;;14.26;100.00;102001.75;5030863;28;20022;-79
2023/05/08 05:50:20;;;;;;;37.05;33.55;;;;;;;14.32;100.00;102004.78;5030708;28;20253;-79
2023/05/08 05:52:45;;;;;;;37.92;34.15;;;;;;;14.37;100.00;102002.66;5027843;28;20017;-79
2023/05/08 05:55:11;;;;;;;37.92;33.97;;;;;;;14.39;100.00;102000.75;5022687;28;20030;-79
2023/05/08 05:57:37;;;;;;;39.83;35.72;;;;;;;14.47;100.00;102002.06;5026344;28;20053;-78
2023/05/08 06:00:03;;;;;;;41.33;36.95;;;;;;;14.48;100.00;102012.53;5026352;28;20470;-79
2023/05/08 06:02:35;;;;;;;41.22;37.05;;;;;;;14.47;100.00;102010.84;5030493;28;20021;-79
2023/05/08 06:05:00;;;;;;;43.00;38.50;;;;;;;14.50;100.00;102001.84;5030484;28;20025;-78
2023/05/08 06:07:26;;;;;;;42.20;37.58;;;;;;;14.55;100.00;102002.34;5033409;28;20028;-77
2023/05/08 06:09:52;;;;;;;41.10;36.92;;;;;;;14.56;100.00;102009.34;5018548;28;20474;-78
2023/05/08 06:12:17;;;;;;;42.67;38.33;;;;;;;14.57;100.00;102008.38;5026640;28;20048;-77
2023/05/08 06:14:43;;;;;;;41.85;37.65;;;;;;;14.55;100.00;102005.84;5018010;28;20029;-77
2023/05/08 06:17:08;;;;;;;43.40;38.83;;;;;;;14.59;100.00;102002.00;5009546;28;20030;-78
2023/05/08 06:19:33;;;;;;;45.22;40.42;;;;;;;14.58;100.00;102007.44;5022381;28;20021;-77
2023/05/08 06:22:05;;;;;;;45.08;40.28;;;;;;;14.61;100.00;102009.84;5029343;28;20079;-77
2023/05/08 06:24:30;;;;;;;46.08;41.08;;;;;;;14.61;100.00;102010.69;5046065;28;20018;-78
2023/05/08 06:26:56;;;;;;;45.30;40.65;;;;;;;14.67;100.00;102004.09;5020149;28;20085;-78
2023/05/08 06:29:21;;;;;;;46.95;41.85;;;;;;;14.73;100.00;102003.66;5027276;28;20533;-78
2023/05/08 06:31:46;;;;;;;46.40;41.53;;;;;;;14.78;100.00;102001.50;5029529;28;20021;-78
2023/05/08 06:34:12;;;;;;;49.30;44.00;;;;;;;14.86;100.00;102004.47;5030940;28;20600;-78
2023/05/08 06:36:37;;;;;;;47.33;42.45;;;;;;;14.94;100.00;102010.03;5031600;28;20056;-77
2023/05/08 06:39:07;;;;;;;49.65;44.45;;;;;;;15.04;100.00;102007.56;5041060;28;20389;-77
2023/05/08 06:41:35;;;;;;;49.55;44.15;;;;;;;15.12;100.00;102009.63;5050062;28;20053;-77
2023/05/08 06:44:01;;;;;;;49.47;44.08;;;;;;;15.20;100.00;102009.91;5038288;28;20475;-77
2023/05/08 06:46:28;;;;;;;49.78;44.28;;;;;;;15.31;100.00;102017.91;5022602;28;20079;-76
2023/05/08 06:48:54;;;;;;;50.40;45.10;;;;;;;15.36;100.00;102018.41;5031610;28;20022;-77
2023/05/08 06:51:21;;;;;;;49.97;44.72;;;;;;;15.35;100.00;102016.72;5026049;28;20353;-77
2023/05/08 06:54:04;;;;;;;48.15;43.17;;;;;;;15.44;100.00;102023.13;5025892;28;20029;-76
2023/05/08 06:56:29;;;;;;;49.72;44.70;;;;;;;15.44;100.00;102023.97;5030283;28;20557;-77
2023/05/08 06:58:56;;;;;;;51.20;45.85;;;;;;;15.52;100.00;102029.53;5031321;28;20096;-78
2023/05/08 07:01:21;;;;;;;50.83;45.38;;;;;;;15.49;100.00;102029.78;5028092;28;20445;-77
2023/05/08 07:03:46;;;;;;;51.38;46.15;;;;;;;15.51;100.00;102032.31;5030170;28;20079;-77
2023/05/08 07:06:12;;;;;;;52.95;47.40;;;;;;;15.46;100.00;102037.97;5024804;28;20030;-77
2023/05/08 07:08:37;;;;;;;51.65;46.25;;;;;;;15.40;100.00;102041.09;5043868;28;20460;-78
2023/05/08 07:11:07;;;;;;;52.55;46.95;;;;;;;15.43;100.00;102035.53;5047213;28;20032;-78
2023/05/08 07:13:33;;;;;;;52.40;46.97;;;;;;;15.43;100.00;102040.84;5047396;28;20474;-76
2023/05/08 07:15:58;;;;;;;50.70;45.30;;;;;;;15.41;100.00;102037.47;5046577;28;20013;-75
2023/05/08 07:18:23;;;;;;;49.38;44.17;;;;;;;15.42;100.00;102035.66;5048010;28;20681;-75
2023/05/08 07:20:49;;;;;;;47.97;43.22;;;;;;;15.48;100.00;102033.38;5048049;28;20040;-75
2023/05/08 07:23:15;;;;;;;49.45;44.55;;;;;;;15.48;100.00;102038.69;5048146;28;20074;-75
2023/05/08 07:25:40;;;;;;;48.10;43.30;;;;;;;15.47;100.00;102031.69;5043445;28;20053;-75
2023/05/08 07:28:06;;;;;;;48.97;43.85;;;;;;;15.56;100.00;102031.00;5029432;28;20509;-75
2023/05/08 07:30:32;;;;;;;47.50;42.85;;;;;;;15.48;100.00;102038.69;5030562;28;20018;-75
2023/05/08 07:32:58;;;;;;;46.60;41.85;;;;;;;15.54;100.00;102032.91;5029469;28;20031;-75
2023/05/08 07:35:23;;;;;;;45.05;40.53;;;;;;;15.64;100.00;102033.13;5029611;28;20044;-75
2023/05/08 07:37:49;;;;;;;44.13;39.63;;;;;;;15.77;100.00;102035.66;5031008;28;20025;-75
2023/05/08 07:40:14;;;;;;;43.35;39.05;;;;;;;15.88;100.00;102038.34;5010306;28;20034;-75
2023/05/08 07:42:41;;;;;;;40.47;36.47;;;;;;;15.88;100.00;102035.69;5010137;28;20155;-77
2023/05/08 07:45:08;;;;;;;41.90;37.90;;;;;;;15.90;100.00;102036.41;5020815;28;20037;-77
2023/05/08 07:47:34;;;;;;;40.83;36.92;;;;;;;16.10;100.00;102025.09;5029175;28;20045;-77
2023/05/08 07:50:03;;;;;;;40.15;36.30;;;;;;;16.19;100.00;102028.81;5029104;28;20022;-77
2023/05/08 07:52:28;;;;;;;40.90;37.00;;;;;;;16.36;100.00;102024.81;5027755;28;20452;-77
2023/05/08 07:55:00;;;;;;;41.38;37.38;;;;;;;16.53;100.00;102030.50;5029470;28;20108;-77
2023/05/08 07:57:27;;;;;;;39.80;35.83;;;;;;;16.67;100.00;102032.06;5028189;28;20052;-76
2023/05/08 07:59:52;;;;;;;39.40;35.45;;;;;;;16.79;100.00;102028.41;5027083;28;20048;-77
2023/05/08 08:02:17;;;;;;;37.40;33.80;;;;;;;16.97;100.00;102027.91;5027984;28;20564;-77
2023/05/08 08:04:43;;;;;;;37.80;34.20;;;;;;;16.90;100.00;102031.06;5027884;28;20115;-77
2023/05/08 08:07:08;;;;;;;35.42;32.15;;;;;;;17.14;100.00;102033.50;5029971;28;20010;-77
2023/05/08 08:09:38;;;;;;;36.60;33.03;;;;;;;17.17;100.00;102032.41;5028678;28;20049;-77
2023/05/08 08:12:04;;;;;;;37.35;33.75;;;;;;;17.29;100.00;102030.56;5027121;28;20025;-77
2023/05/08 08:14:29;;;;;;;36.47;32.83;;;;;;;17.39;100.00;102032.31;5028507;28;20038;-77
2023/05/08 08:16:56;;;;;;;35.45;32.20;;;;;;;17.39;100.00;102037.63;5030014;28;20099;-77
2023/05/08 08:19:22;;;;;;;33.53;30.42;;;;;;;17.44;100.00;102035.44;5028925;28;20044;-77
2023/05/08 08:21:48;;;;;;;32.38;29.48;;;;;;;17.50;100.00;102039.38;5028886;28;20025;-77
2023/05/08 08:24:14;;;;;;;33.47;30.33;;;;;;;17.74;100.00;102032.03;5028447;28;20108;-77
2023/05/08 08:26:40;;;;;;;31.75;28.77;;;;;;;17.91;100.00;102038.56;5043540;28;20104;-77
2023/05/08 08:29:05;;;;;;;33.17;29.98;;;;;;;18.05;100.00;102037.38;5049232;28;20104;-77
2023/05/08 08:31:31;;;;;;;30.70;27.80;;;;;;;18.20;98.71;102024.53;5028806;28;20079;-77
2023/05/08 08:34:02;;;;;;;27.73;25.13;;;;;;;18.25;99.23;102030.31;5029370;28;20029;-77
2023/05/08 08:36:29;;;;;;;29.50;26.80;;;;;;;18.45;97.27;102021.41;5028202;28;20120;-77
2023/05/08 08:38:55;;;;;;;30.38;27.73;;;;;;;18.66;94.79;102019.53;5023890;28;20026;-77
2023/05/08 08:41:22;;;;;;;28.33;25.63;;;;;;;18.82;92.06;102021.69;5028452;28;20041;-78
2023/05/08 08:43:47;;;;;;;29.20;26.25;;;;;;;18.78;90.42;102017.56;5028698;28;20066;-77
2023/05/08 08:46:14;;;;;;;29.17;26.55;;;;;;;19.03;92.15;102027.72;5019399;28;20476;-77
2023/05/08 08:48:52;;;;;;;30.23;27.52;;;;;;;19.34;91.91;102014.25;5019450;28;20029;-78
2023/05/08 08:51:31;;;;;;;30.05;27.25;;;;;;;19.75;91.20;102028.25;5029107;28;20474;-78
2023/05/08 08:54:07;;;;;;;29.77;27.05;;;;;;;19.83;92.09;102023.03;5028028;28;20036;-77
2023/05/08 08:56:37;;;;;;;30.95;28.05;;;;;;;19.65;89.18;102028.28;5028028;28;20040;-78
2023/05/08 08:59:04;;;;;;;32.95;29.90;;;;;;;19.39;88.18;102026.16;5027260;28;20036;-77
2023/05/08 09:01:34;;;;;;;33.60;30.50;;;;;;;19.13;90.83;102022.38;5027906;28;20524;-77
2023/05/08 09:04:01;;;;;;;31.98;29.08;;;;;;;19.03;91.60;102029.53;5026316;28;20029;-78
2023/05/08 09:06:27;;;;;;;32.92;29.92;;;;;;;18.89;92.09;102024.63;5027212;28;20053;-79
2023/05/08 09:09:05;;;;;;;34.65;31.38;;;;;;;18.70;94.10;102023.59;5028722;28;20029;-79
2023/05/08 09:11:30;;;;;;;35.58;32.38;;;;;;;18.78;95.18;102030.91;5033358;28;20434;-80
2023/05/08 09:13:56;;;;;;;36.53;33.13;;;;;;;18.83;95.82;102025.19;5030353;28;20104;-79
2023/05/08 09:16:23;;;;;;;36.92;33.33;;;;;;;18.66;94.98;102024.84;5031632;28;20433;-77
2023/05/08 09:18:49;;;;;;;35.50;32.10;;;;;;;18.64;92.96;102028.63;5031712;28;20109;-77
2023/05/08 09:21:14;;;;;;;36.75;33.28;;;;;;;18.57;93.68;102028.31;5031552;28;20462;-77
2023/05/08 09:23:56;;;;;;;35.70;32.40;;;;;;;18.73;95.99;102026.00;5031388;28;20033;-77
2023/05/08 09:26:31;;;;;;;36.17;32.53;;;;;;;18.83;95.78;102026.03;5041021;28;20358;-78
2023/05/08 09:29:14;;;;;;;37.70;34.30;;;;;;;18.94;97.42;102023.22;5027508;28;20495;-77
2023/05/08 09:31:51;;;;;;;39.22;35.28;;;;;;;18.82;96.07;102028.84;5023295;28;20037;-77
2023/05/08 09:34:32;;;;;;;42.70;38.08;;;;;;;18.69;97.05;102027.25;5029837;28;20033;-78
2023/05/08 09:37:03;;;;;;;52.53;41.90;;;;;;;18.47;96.68;102030.97;5031845;28;20029;-78
2023/05/08 09:39:28;;;;;;;46.20;41.17;;;;;;;18.37;97.13;102029.22;5031036;28;20079;-77
2023/05/08 09:42:01;;;;;;;46.88;41.47;;;;;;;18.34;98.43;102021.50;5029513;28;20037;-77
2023/05/08 09:44:27;;;;;;;45.90;41.22;;;;;;;18.35;100.00;102025.84;5030620;28;20029;-77
2023/05/08 09:47:11;;;;;;;48.95;43.95;;;;;;;18.41;100.00;102025.31;5018910;28;20033;-76
2023/05/08 09:49:39;;;;;;;47.80;42.75;;;;;;;18.36;98.32;102031.03;5031677;28;20055;-77
2023/05/08 09:52:05;;;;;;;47.35;42.17;;;;;;;18.47;98.59;102024.78;5032001;28;20424;-78
2023/05/08 09:54:30;;;;;;;46.08;41.28;;;;;;;18.50;98.42;102029.84;5030695;28;20417;-77
2023/05/08 09:56:56;;;;;;;48.42;43.33;;;;;;;18.42;97.33;102029.69;5030790;28;20071;-77
2023/05/08 09:59:28;;;;;;;50.53;43.58;;;;;;;18.33;97.01;102038.47;5031464;28;20434;-77
2023/05/08 10:01:56;;;;;;;47.55;42.45;;;;;;;18.37;97.27;102037.22;5031047;28;20030;-77
2023/05/08 10:04:36;;;;;;;46.00;41.03;;;;;;;18.48;98.13;102032.66;5029840;28;20060;-77
2023/05/08 10:07:01;;;;;;;47.80;42.67;;;;;;;18.51;97.36;102031.53;5024184;28;20109;-77
2023/05/08 10:09:27;;;;;;;47.13;42.13;;;;;;;18.49;97.47;102033.50;5035465;28;20025;-78
2023/05/08 10:11:54;;;;;;;49.45;43.83;;;;;;;18.46;97.06;102033.75;5031135;28;20033;-78
2023/05/08 10:14:23;;;;;;;48.63;43.40;;;;;;;18.51;100.00;102034.19;5029442;28;20827;-77
2023/05/08 10:16:51;;;;;;;50.03;44.53;;;;;;;18.64;97.33;102034.81;5030345;28;20057;-77
2023/05/08 10:19:27;;;;;;;49.53;44.25;;;;;;;18.78;97.24;102031.75;5022459;28;20029;-77
2023/05/08 10:21:56;;;;;;;49.85;44.38;;;;;;;18.72;95.56;102040.31;5026540;28;20109;-77
2023/05/08 10:24:40;;;;;;;51.10;45.50;;;;;;;18.82;97.15;102034.16;5025234;28;20026;-77
2023/05/08 10:27:16;;;;;;;52.92;45.55;;;;;;;18.89;96.63;102040.63;5031477;28;20044;-77
2023/05/08 10:29:52;;;;;;;54.15;45.22;;;;;;;18.89;95.43;102037.97;5030992;28;20021;-77
2023/05/08 10:32:22;;;;;;;49.67;43.05;;;;;;;18.78;92.45;102045.09;5030152;28;20029;-77
2023/05/08 10:34:56;;;;;;;48.90;42.78;;;;;;;18.71;93.22;102041.28;5031518;28;20100;-78
2023/05/08 10:37:21;;;;;;;48.90;41.50;;;;;;;18.56;93.35;102033.78;5029763;28;20478;-78
2023/05/08 10:39:47;;;;;;;49.20;42.78;;;;;;;18.43;94.42;102031.38;5030568;28;20040;-78
2023/05/08 10:42:13;;;;;;;50.08;44.63;;;;;;;18.48;98.59;102026.47;5030058;28;20046;-78
2023/05/08 10:44:39;;;;;;;52.00;46.10;;;;;;;18.44;97.40;102036.56;5027192;28;20907;-77
2023/05/08 10:47:14;;;;;;;55.78;49.03;;;;;;;18.30;96.22;102038.75;5027351;28;20120;-77
2023/05/08 10:49:54;;;;;;;57.05;47.88;;;;;;;18.29;97.66;102037.06;5030461;28;20040;-78
2023/05/08 10:52:38;;;;;;;53.05;47.22;;;;;;;18.49;96.57;102033.50;5027460;28;20098;-77
2023/05/08 10:55:30;;;;;;;55.67;48.08;;;;;;;18.53;95.65;102040.22;5025748;28;20091;-77
2023/05/08 10:58:14;;;;;;;53.60;47.00;;;;;;;18.66;95.70;102032.84;5029446;28;20037;-77
2023/05/08 11:00:51;;;;;;;54.50;46.85;;;;;;;18.78;97.26;102028.25;5031053;28;20033;-77
2023/05/08 11:03:17;;;;;;;53.65;46.67;;;;;;;18.93;95.40;102026.88;5031901;28;20033;-76
2023/05/08 11:05:47;;;;;;;54.47;47.00;;;;;;;18.99;93.49;102026.31;5030294;28;20033;-77
2023/05/08 11:08:26;;;;;;;51.35;45.00;;;;;;;19.35;93.01;102027.44;5038034;28;20063;-77
2023/05/08 11:11:09;;;;;;;52.28;44.78;;;;;;;19.75;91.30;102023.75;5029620;28;20473;-77
2023/05/08 11:13:37;;;;;;;50.90;43.17;;;;;;;19.88;87.46;102018.94;5029917;28;20516;-77
2023/05/08 11:16:06;;;;;;;49.72;44.40;;;;;;;20.19;87.81;102010.66;5029911;28;20098;-76